sensor_id;sensor_type;location;lat;lon;timestamp;pressure;altitude;pressure_sealevel;temperature
18161;BMP280;9205;52.032;4.314;2022-09-03T00:02:22;101027.59;;;21.55
18161;BMP280;9205;52.032;4.314;2022-09-03T00:04:59;101022.50;;;21.54
18161;BMP280;9205;52.032;4.314;2022-09-03T00:07:38;101011.44;;;21.52
18161;BMP280;9205;52.032;4.314;2022-09-03T00:10:12;101016.16;;;21.45
18161;BMP280;9205;52.032;4.314;2022-09-03T00:12:43;101009.25;;;21.46
18161;BMP280;9205;52.032;4.314;2022-09-03T00:15:16;101002.59;;;21.42
18161;BMP280;9205;52.032;4.314;2022-09-03T00:17:49;101008.59;;;21.42
18161;BMP280;9205;52.032;4.314;2022-09-03T00:20:26;101014.69;;;21.41
18161;BMP280;9205;52.032;4.314;2022-09-03T00:22:58;101007.75;;;21.42
18161;BMP280;9205;52.032;4.314;2022-09-03T00:25:35;101005.38;;;21.39
18161;BMP280;9205;52.032;4.314;2022-09-03T00:28:10;100997.63;;;21.39
18161;BMP280;9205;52.032;4.314;2022-09-03T00:30:41;101008.03;;;21.37
18161;BMP280;9205;52.032;4.314;2022-09-03T00:33:14;100995.22;;;21.36
18161;BMP280;9205;52.032;4.314;2022-09-03T00:35:51;100994.31;;;21.37
18161;BMP280;9205;52.032;4.314;2022-09-03T00:38:20;100998.56;;;21.38
18161;BMP280;9205;52.032;4.314;2022-09-03T00:41:05;101007.53;;;21.32
18161;BMP280;9205;52.032;4.314;2022-09-03T00:44:03;101002.44;;;21.31
18161;BMP280;9205;52.032;4.314;2022-09-03T00:46:42;101008.81;;;21.26
18161;BMP280;9205;52.032;4.314;2022-09-03T00:49:27;101005.31;;;21.27
18161;BMP280;9205;52.032;4.314;2022-09-03T00:52:07;101010.56;;;21.25
18161;BMP280;9205;52.032;4.314;2022-09-03T00:55:02;101007.97;;;21.25
18161;BMP280;9205;52.032;4.314;2022-09-03T00:57:45;101007.28;;;21.23
18161;BMP280;9205;52.032;4.314;2022-09-03T01:00:18;101007.34;;;21.22
18161;BMP280;9205;52.032;4.314;2022-09-03T01:03:00;100999.69;;;21.20
18161;BMP280;9205;52.032;4.314;2022-09-03T01:05:48;101002.38;;;21.19
18161;BMP280;9205;52.032;4.314;2022-09-03T01:08:46;100999.81;;;21.19
18161;BMP280;9205;52.032;4.314;2022-09-03T01:11:23;101001.75;;;21.15
18161;BMP280;9205;52.032;4.314;2022-09-03T01:14:01;101004.63;;;21.11
18161;BMP280;9205;52.032;4.314;2022-09-03T01:16:45;101002.09;;;21.09
18161;BMP280;9205;52.032;4.314;2022-09-03T01:19:51;101007.56;;;21.05
18161;BMP280;9205;52.032;4.314;2022-09-03T01:22:51;101004.31;;;21.01
18161;BMP280;9205;52.032;4.314;2022-09-03T01:25:41;101010.91;;;20.93
18161;BMP280;9205;52.032;4.314;2022-09-03T01:28:28;101012.72;;;20.91
18161;BMP280;9205;52.032;4.314;2022-09-03T01:31:10;101014.59;;;20.89
18161;BMP280;9205;52.032;4.314;2022-09-03T01:33:48;101014.03;;;20.84
18161;BMP280;9205;52.032;4.314;2022-09-03T01:36:24;101014.94;;;20.83
18161;BMP280;9205;52.032;4.314;2022-09-03T01:39:01;101022.91;;;20.80
18161;BMP280;9205;52.032;4.314;2022-09-03T01:41:46;101014.22;;;20.81
18161;BMP280;9205;52.032;4.314;2022-09-03T01:45:11;101013.59;;;20.77
18161;BMP280;9205;52.032;4.314;2022-09-03T01:47:55;101006.81;;;20.75
18161;BMP280;9205;52.032;4.314;2022-09-03T01:50:43;101007.00;;;20.72
18161;BMP280;9205;52.032;4.314;2022-09-03T01:53:31;101008.94;;;20.68
18161;BMP280;9205;52.032;4.314;2022-09-03T01:56:21;101008.31;;;20.65
18161;BMP280;9205;52.032;4.314;2022-09-03T01:58:58;101009.38;;;20.61
18161;BMP280;9205;52.032;4.314;2022-09-03T02:01:38;101010.13;;;20.63
18161;BMP280;9205;52.032;4.314;2022-09-03T02:04:18;101015.66;;;20.57
18161;BMP280;9205;52.032;4.314;2022-09-03T02:06:47;101008.25;;;20.51
18161;BMP280;9205;52.032;4.314;2022-09-03T02:09:15;101004.06;;;20.50
18161;BMP280;9205;52.032;4.314;2022-09-03T02:11:44;101003.31;;;20.48
18161;BMP280;9205;52.032;4.314;2022-09-03T02:14:13;101003.41;;;20.47
18161;BMP280;9205;52.032;4.314;2022-09-03T02:16:42;101006.81;;;20.47
18161;BMP280;9205;52.032;4.314;2022-09-03T02:19:13;100993.09;;;20.47
18161;BMP280;9205;52.032;4.314;2022-09-03T02:21:49;100997.50;;;20.45
18161;BMP280;9205;52.032;4.314;2022-09-03T02:24:18;100993.53;;;20.39
18161;BMP280;9205;52.032;4.314;2022-09-03T02:26:45;100993.53;;;20.39
18161;BMP280;9205;52.032;4.314;2022-09-03T02:29:14;100992.72;;;20.39
18161;BMP280;9205;52.032;4.314;2022-09-03T02:31:44;100997.13;;;20.37
18161;BMP280;9205;52.032;4.314;2022-09-03T02:34:11;100987.06;;;20.32
18161;BMP280;9205;52.032;4.314;2022-09-03T02:36:42;100987.97;;;20.31
18161;BMP280;9205;52.032;4.314;2022-09-03T02:39:11;100984.84;;;20.26
18161;BMP280;9205;52.032;4.314;2022-09-03T02:41:39;100995.25;;;20.25
18161;BMP280;9205;52.032;4.314;2022-09-03T02:44:22;100990.19;;;20.23
18161;BMP280;9205;52.032;4.314;2022-09-03T02:46:58;100991.84;;;20.24
18161;BMP280;9205;52.032;4.314;2022-09-03T02:49:26;100995.44;;;20.22
18161;BMP280;9205;52.032;4.314;2022-09-03T02:51:58;100986.94;;;20.20
18161;BMP280;9205;52.032;4.314;2022-09-03T02:54:27;100987.03;;;20.18
18161;BMP280;9205;52.032;4.314;2022-09-03T02:56:56;100985.47;;;20.16
18161;BMP280;9205;52.032;4.314;2022-09-03T02:59:23;100982.97;;;20.14
18161;BMP280;9205;52.032;4.314;2022-09-03T03:01:54;100989.16;;;20.12
18161;BMP280;9205;52.032;4.314;2022-09-03T03:04:21;100985.00;;;20.09
18161;BMP280;9205;52.032;4.314;2022-09-03T03:06:49;100985.16;;;20.06
18161;BMP280;9205;52.032;4.314;2022-09-03T03:09:16;100992.63;;;20.11
18161;BMP280;9205;52.032;4.314;2022-09-03T03:11:44;100985.16;;;20.06
18161;BMP280;9205;52.032;4.314;2022-09-03T03:14:11;100983.50;;;20.05
18161;BMP280;9205;52.032;4.314;2022-09-03T03:16:39;100990.31;;;20.06
18161;BMP280;9205;52.032;4.314;2022-09-03T03:19:08;100992.34;;;20.01
18161;BMP280;9205;52.032;4.314;2022-09-03T03:21:35;100990.84;;;19.97
18161;BMP280;9205;52.032;4.314;2022-09-03T03:24:03;100992.69;;;19.95
18161;BMP280;9205;52.032;4.314;2022-09-03T03:26:31;100992.69;;;19.95
18161;BMP280;9205;52.032;4.314;2022-09-03T03:29:00;100989.34;;;19.93
18161;BMP280;9205;52.032;4.314;2022-09-03T03:31:30;100998.81;;;19.93
18161;BMP280;9205;52.032;4.314;2022-09-03T03:34:00;100991.34;;;19.88
18161;BMP280;9205;52.032;4.314;2022-09-03T03:36:32;100992.19;;;19.89
18161;BMP280;9205;52.032;4.314;2022-09-03T03:39:00;101000.72;;;19.89
18161;BMP280;9205;52.032;4.314;2022-09-03T03:41:29;100999.00;;;19.90
18161;BMP280;9205;52.032;4.314;2022-09-03T03:43:59;101002.41;;;19.90
18161;BMP280;9205;52.032;4.314;2022-09-03T03:46:31;101012.72;;;19.90
18161;BMP280;9205;52.032;4.314;2022-09-03T03:48:59;100993.94;;;19.88
18161;BMP280;9205;52.032;4.314;2022-09-03T03:51:26;100990.50;;;19.88
18161;BMP280;9205;52.032;4.314;2022-09-03T03:53:57;100992.34;;;19.86
18161;BMP280;9205;52.032;4.314;2022-09-03T03:56:26;100992.34;;;19.86
18161;BMP280;9205;52.032;4.314;2022-09-03T03:58:54;100992.28;;;19.87
18161;BMP280;9205;52.032;4.314;2022-09-03T04:01:24;100997.50;;;19.86
18161;BMP280;9205;52.032;4.314;2022-09-03T04:03:54;100994.84;;;19.87
18161;BMP280;9205;52.032;4.314;2022-09-03T04:06:22;100991.34;;;19.88
18161;BMP280;9205;52.032;4.314;2022-09-03T04:08:49;100990.59;;;19.86
18161;BMP280;9205;52.032;4.314;2022-09-03T04:11:22;100996.50;;;19.88
18161;BMP280;9205;52.032;4.314;2022-09-03T04:13:51;100989.69;;;19.87
18161;BMP280;9205;52.032;4.314;2022-09-03T04:16:21;100996.69;;;19.85
18161;BMP280;9205;52.032;4.314;2022-09-03T04:18:49;100987.13;;;19.87
18161;BMP280;9205;52.032;4.314;2022-09-03T04:21:20;100985.44;;;19.86
18161;BMP280;9205;52.032;4.314;2022-09-03T04:23:51;100982.03;;;19.86
18161;BMP280;9205;52.032;4.314;2022-09-03T04:26:23;100990.59;;;19.86
18161;BMP280;9205;52.032;4.314;2022-09-03T04:28:50;100993.19;;;19.86
18161;BMP280;9205;52.032;4.314;2022-09-03T04:31:20;100983.13;;;19.82
18161;BMP280;9205;52.032;4.314;2022-09-03T04:33:47;100984.03;;;19.81
18161;BMP280;9205;52.032;4.314;2022-09-03T04:36:18;100981.63;;;19.78
18161;BMP280;9205;52.032;4.314;2022-09-03T04:38:48;100980.81;;;19.77
18161;BMP280;9205;52.032;4.314;2022-09-03T04:41:18;100983.50;;;19.76
18161;BMP280;9205;52.032;4.314;2022-09-03T04:43:46;100972.69;;;19.69
18161;BMP280;9205;52.032;4.314;2022-09-03T04:46:14;100978.75;;;19.68
18161;BMP280;9205;52.032;4.314;2022-09-03T04:48:42;100979.84;;;19.65
18161;BMP280;9205;52.032;4.314;2022-09-03T04:51:12;100979.09;;;19.63
18161;BMP280;9205;52.032;4.314;2022-09-03T04:53:42;100986.06;;;19.61
18161;BMP280;9205;52.032;4.314;2022-09-03T04:56:15;100989.41;;;19.63
18161;BMP280;9205;52.032;4.314;2022-09-03T04:58:43;100980.16;;;19.59
18161;BMP280;9205;52.032;4.314;2022-09-03T05:01:15;100987.19;;;19.57
18161;BMP280;9205;52.032;4.314;2022-09-03T05:03:43;100991.59;;;19.55
18161;BMP280;9205;52.032;4.314;2022-09-03T05:06:13;100984.84;;;19.52
18161;BMP280;9205;52.032;4.314;2022-09-03T05:08:42;100987.59;;;19.49
18161;BMP280;9205;52.032;4.314;2022-09-03T05:11:10;100986.03;;;19.47
18161;BMP280;9205;52.032;4.314;2022-09-03T05:13:37;100995.56;;;19.45
18161;BMP280;9205;52.032;4.314;2022-09-03T05:16:07;100989.66;;;19.43
18161;BMP280;9205;52.032;4.314;2022-09-03T05:18:36;101001.97;;;19.38
18161;BMP280;9205;52.032;4.314;2022-09-03T05:21:07;100999.50;;;19.36
18161;BMP280;9205;52.032;4.314;2022-09-03T05:23:36;101004.75;;;19.35
18161;BMP280;9205;52.032;4.314;2022-09-03T05:26:07;101000.50;;;19.34
18161;BMP280;9205;52.032;4.314;2022-09-03T05:28:37;101000.50;;;19.34
18161;BMP280;9205;52.032;4.314;2022-09-03T05:31:07;101004.03;;;19.31
18161;BMP280;9205;52.032;4.314;2022-09-03T05:33:38;100993.75;;;19.31
18161;BMP280;9205;52.032;4.314;2022-09-03T05:36:10;100986.13;;;19.30
18161;BMP280;9205;52.032;4.314;2022-09-03T05:38:37;100993.09;;;19.28
18161;BMP280;9205;52.032;4.314;2022-09-03T05:41:07;100995.75;;;19.26
18161;BMP280;9205;52.032;4.314;2022-09-03T05:43:36;101002.66;;;19.26
18161;BMP280;9205;52.032;4.314;2022-09-03T05:46:05;100990.69;;;19.25
18161;BMP280;9205;52.032;4.314;2022-09-03T05:48:37;100989.78;;;19.26
18161;BMP280;9205;52.032;4.314;2022-09-03T05:51:08;100995.09;;;19.23
18161;BMP280;9205;52.032;4.314;2022-09-03T05:53:37;100998.41;;;19.25
18161;BMP280;9205;52.032;4.314;2022-09-03T05:56:08;100995.84;;;19.25
18161;BMP280;9205;52.032;4.314;2022-09-03T05:58:39;101002.72;;;19.24
18161;BMP280;9205;52.032;4.314;2022-09-03T06:01:11;101007.88;;;19.24
18161;BMP280;9205;52.032;4.314;2022-09-03T06:03:43;101008.72;;;19.25
18161;BMP280;9205;52.032;4.314;2022-09-03T06:06:11;101005.22;;;19.26
18161;BMP280;9205;52.032;4.314;2022-09-03T06:08:40;100997.50;;;19.26
18161;BMP280;9205;52.032;4.314;2022-09-03T06:11:10;101010.19;;;19.29
18161;BMP280;9205;52.032;4.314;2022-09-03T06:13:37;101009.28;;;19.30
18161;BMP280;9205;52.032;4.314;2022-09-03T06:16:07;101010.19;;;19.29
18161;BMP280;9205;52.032;4.314;2022-09-03T06:18:35;101026.66;;;19.26
18161;BMP280;9205;52.032;4.314;2022-09-03T06:21:06;101012.72;;;19.30
18161;BMP280;9205;52.032;4.314;2022-09-03T06:23:36;101016.09;;;19.31
18161;BMP280;9205;52.032;4.314;2022-09-03T06:26:05;101015.97;;;19.34
18161;BMP280;9205;52.032;4.314;2022-09-03T06:28:37;101017.69;;;19.33
18161;BMP280;9205;52.032;4.314;2022-09-03T06:31:07;101019.25;;;19.36
18161;BMP280;9205;52.032;4.314;2022-09-03T06:33:36;101009.72;;;19.38
18161;BMP280;9205;52.032;4.314;2022-09-03T06:36:07;101025.81;;;19.41
18161;BMP280;9205;52.032;4.314;2022-09-03T06:38:36;101015.53;;;19.41
18161;BMP280;9205;52.032;4.314;2022-09-03T06:41:05;101015.53;;;19.41
18161;BMP280;9205;52.032;4.314;2022-09-03T06:43:35;101016.13;;;19.46
18161;BMP280;9205;52.032;4.314;2022-09-03T06:46:06;101020.16;;;19.50
18161;BMP280;9205;52.032;4.314;2022-09-03T06:48:35;101020.06;;;19.52
18161;BMP280;9205;52.032;4.314;2022-09-03T06:51:09;101026.84;;;19.54
18161;BMP280;9205;52.032;4.314;2022-09-03T06:53:38;101023.06;;;19.60
18161;BMP280;9205;52.032;4.314;2022-09-03T06:56:09;101029.72;;;19.64
18161;BMP280;9205;52.032;4.314;2022-09-03T06:58:39;101029.63;;;19.65
18161;BMP280;9205;52.032;4.314;2022-09-03T07:01:10;101024.56;;;19.64
18161;BMP280;9205;52.032;4.314;2022-09-03T07:03:40;101026.06;;;19.67
18161;BMP280;9205;52.032;4.314;2022-09-03T07:06:11;101026.66;;;19.72
18161;BMP280;9205;52.032;4.314;2022-09-03T07:08:40;101024.63;;;19.77
18161;BMP280;9205;52.032;4.314;2022-09-03T07:11:10;101029.63;;;19.80
18161;BMP280;9205;52.032;4.314;2022-09-03T07:13:40;101033.69;;;19.84
18161;BMP280;9205;52.032;4.314;2022-09-03T07:16:10;101032.50;;;19.90
18161;BMP280;9205;52.032;4.314;2022-09-03T07:18:39;101024.47;;;19.96
18161;BMP280;9205;52.032;4.314;2022-09-03T07:21:11;101027.88;;;19.96
18161;BMP280;9205;52.032;4.314;2022-09-03T07:23:39;101027.59;;;20.01
18161;BMP280;9205;52.032;4.314;2022-09-03T07:26:09;101023.94;;;20.05
18161;BMP280;9205;52.032;4.314;2022-09-03T07:28:39;101022.13;;;20.07
18161;BMP280;9205;52.032;4.314;2022-09-03T07:31:09;101031.22;;;20.12
18161;BMP280;9205;52.032;4.314;2022-09-03T07:33:38;101027.56;;;20.16
18161;BMP280;9205;52.032;4.314;2022-09-03T07:36:09;101034.19;;;20.20
18161;BMP280;9205;52.032;4.314;2022-09-03T07:38:41;101028.22;;;20.20
18161;BMP280;9205;52.032;4.314;2022-09-03T07:41:12;101026.19;;;20.25
18161;BMP280;9205;52.032;4.314;2022-09-03T07:43:42;101021.69;;;20.28
18161;BMP280;9205;52.032;4.314;2022-09-03T07:46:13;101027.59;;;20.30
18161;BMP280;9205;52.032;4.314;2022-09-03T07:48:42;101024.75;;;20.35
18161;BMP280;9205;52.032;4.314;2022-09-03T07:51:10;101017.50;;;20.41
18161;BMP280;9205;52.032;4.314;2022-09-03T07:53:37;101033.41;;;20.47
18161;BMP280;9205;52.032;4.314;2022-09-03T07:56:08;101031.41;;;20.52
18161;BMP280;9205;52.032;4.314;2022-09-03T07:58:37;101033.78;;;20.55
18161;BMP280;9205;52.032;4.314;2022-09-03T08:01:08;101036.22;;;20.58
18161;BMP280;9205;52.032;4.314;2022-09-03T08:03:36;101036.88;;;20.62
18161;BMP280;9205;52.032;4.314;2022-09-03T08:06:06;101043.50;;;20.66
18161;BMP280;9205;52.032;4.314;2022-09-03T08:08:36;101038.78;;;20.72
18161;BMP280;9205;52.032;4.314;2022-09-03T08:11:05;101044.25;;;20.82
18161;BMP280;9205;52.032;4.314;2022-09-03T08:13:37;101050.00;;;20.87
18161;BMP280;9205;52.032;4.314;2022-09-03T08:16:07;101048.59;;;20.95
18161;BMP280;9205;52.032;4.314;2022-09-03T08:18:35;101061.06;;;21.03
18161;BMP280;9205;52.032;4.314;2022-09-03T08:21:09;101057.09;;;21.11
18161;BMP280;9205;52.032;4.314;2022-09-03T08:23:42;101053.19;;;21.18
18161;BMP280;9205;52.032;4.314;2022-09-03T08:26:10;101054.69;;;21.22
18161;BMP280;9205;52.032;4.314;2022-09-03T08:28:38;101055.13;;;21.28
18161;BMP280;9205;52.032;4.314;2022-09-03T08:31:10;101054.38;;;21.40
18161;BMP280;9205;52.032;4.314;2022-09-03T08:33:38;101050.38;;;21.49
18161;BMP280;9205;52.032;4.314;2022-09-03T08:36:10;101045.69;;;21.55
18161;BMP280;9205;52.032;4.314;2022-09-03T08:38:40;101046.97;;;21.62
18161;BMP280;9205;52.032;4.314;2022-09-03T08:41:13;101060.34;;;21.69
18161;BMP280;9205;52.032;4.314;2022-09-03T08:44:08;101058.19;;;21.75
18161;BMP280;9205;52.032;4.314;2022-09-03T08:46:50;101062.75;;;21.84
18161;BMP280;9205;52.032;4.314;2022-09-03T08:49:25;101062.94;;;21.95
18161;BMP280;9205;52.032;4.314;2022-09-03T08:51:59;101047.00;;;22.01
18161;BMP280;9205;52.032;4.314;2022-09-03T08:54:31;101043.09;;;22.08
18161;BMP280;9205;52.032;4.314;2022-09-03T08:57:01;101041.84;;;22.13
18161;BMP280;9205;52.032;4.314;2022-09-03T08:59:30;101046.00;;;22.16
18161;BMP280;9205;52.032;4.314;2022-09-03T09:02:11;101046.31;;;22.24
18161;BMP280;9205;52.032;4.314;2022-09-03T09:04:57;101046.03;;;22.28
18161;BMP280;9205;52.032;4.314;2022-09-03T09:07:31;101050.28;;;22.29
18161;BMP280;9205;52.032;4.314;2022-09-03T09:10:14;101055.19;;;22.34
18161;BMP280;9205;52.032;4.314;2022-09-03T09:12:57;101052.69;;;22.45
18161;BMP280;9205;52.032;4.314;2022-09-03T09:15:39;101055.72;;;22.51
18161;BMP280;9205;52.032;4.314;2022-09-03T09:18:19;101059.13;;;22.52
18161;BMP280;9205;52.032;4.314;2022-09-03T09:20:53;101059.34;;;22.61
18161;BMP280;9205;52.032;4.314;2022-09-03T09:23:28;101058.81;;;22.69
18161;BMP280;9205;52.032;4.314;2022-09-03T09:26:03;101062.88;;;22.73
18161;BMP280;9205;52.032;4.314;2022-09-03T09:28:35;101062.44;;;22.79
18161;BMP280;9205;52.032;4.314;2022-09-03T09:31:06;101061.84;;;22.88
18161;BMP280;9205;52.032;4.314;2022-09-03T09:33:37;101066.38;;;22.96
18161;BMP280;9205;52.032;4.314;2022-09-03T09:36:09;101070.00;;;23.06
18161;BMP280;9205;52.032;4.314;2022-09-03T09:38:38;101057.34;;;23.14
18161;BMP280;9205;52.032;4.314;2022-09-03T09:41:13;101059.31;;;23.23
18161;BMP280;9205;52.032;4.314;2022-09-03T09:43:42;101056.53;;;23.26
18161;BMP280;9205;52.032;4.314;2022-09-03T09:46:14;101043.94;;;23.33
18161;BMP280;9205;52.032;4.314;2022-09-03T09:48:50;101053.06;;;23.38
18161;BMP280;9205;52.032;4.314;2022-09-03T09:51:20;101044.03;;;23.44
18161;BMP280;9205;52.032;4.314;2022-09-03T09:54:00;101046.09;;;23.51
18161;BMP280;9205;52.032;4.314;2022-09-03T09:56:30;101049.16;;;23.56
18161;BMP280;9205;52.032;4.314;2022-09-03T09:59:05;101049.44;;;23.64
18161;BMP280;9205;52.032;4.314;2022-09-03T10:01:37;101048.78;;;23.73
18161;BMP280;9205;52.032;4.314;2022-09-03T10:04:10;101050.97;;;23.79
18161;BMP280;9205;52.032;4.314;2022-09-03T10:06:38;101054.03;;;23.84
18161;BMP280;9205;52.032;4.314;2022-09-03T10:09:25;101046.78;;;23.89
18161;BMP280;9205;52.032;4.314;2022-09-03T10:12:10;101050.59;;;23.96
18161;BMP280;9205;52.032;4.314;2022-09-03T10:14:47;101050.13;;;24.02
18161;BMP280;9205;52.032;4.314;2022-09-03T10:17:22;101046.34;;;24.06
18161;BMP280;9205;52.032;4.314;2022-09-03T10:20:03;101046.94;;;24.09
18161;BMP280;9205;52.032;4.314;2022-09-03T10:22:53;101048.06;;;24.18
18161;BMP280;9205;52.032;4.314;2022-09-03T10:25:25;101053.97;;;24.31
18161;BMP280;9205;52.032;4.314;2022-09-03T10:27:57;101047.97;;;24.30
18161;BMP280;9205;52.032;4.314;2022-09-03T10:30:43;101041.97;;;24.41
18161;BMP280;9205;52.032;4.314;2022-09-03T10:33:22;101045.69;;;24.49
18161;BMP280;9205;52.032;4.314;2022-09-03T10:35:59;101044.19;;;24.57
18161;BMP280;9205;52.032;4.314;2022-09-03T10:38:33;101046.53;;;24.71
18161;BMP280;9205;52.032;4.314;2022-09-03T10:41:19;101050.53;;;24.75
18161;BMP280;9205;52.032;4.314;2022-09-03T10:44:28;101040.31;;;24.85
18161;BMP280;9205;52.032;4.314;2022-09-03T10:47:15;101051.16;;;24.90
18161;BMP280;9205;52.032;4.314;2022-09-03T10:49:56;101051.75;;;24.93
18161;BMP280;9205;52.032;4.314;2022-09-03T10:52:33;101053.19;;;24.97
18161;BMP280;9205;52.032;4.314;2022-09-03T10:55:18;101054.34;;;25.04
18161;BMP280;9205;52.032;4.314;2022-09-03T10:58:01;101047.75;;;25.11
18161;BMP280;9205;52.032;4.314;2022-09-03T11:00:44;101052.34;;;25.19
18161;BMP280;9205;52.032;4.314;2022-09-03T11:03:42;101045.38;;;25.30
18161;BMP280;9205;52.032;4.314;2022-09-03T11:06:19;101056.31;;;25.55
18161;BMP280;9205;52.032;4.314;2022-09-03T11:08:55;101040.91;;;26.06
18161;BMP280;9205;52.032;4.314;2022-09-03T11:11:33;101047.31;;;27.13
18161;BMP280;9205;52.032;4.314;2022-09-03T11:14:08;101042.78;;;28.39
18161;BMP280;9205;52.032;4.314;2022-09-03T11:16:44;101041.78;;;29.49
18161;BMP280;9205;52.032;4.314;2022-09-03T11:19:16;101040.19;;;30.18
18161;BMP280;9205;52.032;4.314;2022-09-03T11:21:45;101030.47;;;30.53
18161;BMP280;9205;52.032;4.314;2022-09-03T11:24:19;101036.53;;;30.87
18161;BMP280;9205;52.032;4.314;2022-09-03T11:26:54;101033.47;;;30.99
18161;BMP280;9205;52.032;4.314;2022-09-03T11:29:32;101030.00;;;30.91
18161;BMP280;9205;52.032;4.314;2022-09-03T11:32:08;101037.88;;;30.91
18161;BMP280;9205;52.032;4.314;2022-09-03T11:34:45;101030.09;;;31.06
18161;BMP280;9205;52.032;4.314;2022-09-03T11:37:20;101035.66;;;31.03
18161;BMP280;9205;52.032;4.314;2022-09-03T11:39:57;101039.00;;;30.96
18161;BMP280;9205;52.032;4.314;2022-09-03T11:42:33;101039.47;;;30.92
18161;BMP280;9205;52.032;4.314;2022-09-03T11:45:23;101033.69;;;30.47
18161;BMP280;9205;52.032;4.314;2022-09-03T11:48:01;101026.78;;;30.03
18161;BMP280;9205;52.032;4.314;2022-09-03T11:50:31;101030.66;;;29.64
18161;BMP280;9205;52.032;4.314;2022-09-03T11:53:09;101031.16;;;29.33
18161;BMP280;9205;52.032;4.314;2022-09-03T11:55:52;101027.81;;;29.14
18161;BMP280;9205;52.032;4.314;2022-09-03T11:58:25;101037.78;;;29.01
18161;BMP280;9205;52.032;4.314;2022-09-03T12:00:57;101038.75;;;29.00
18161;BMP280;9205;52.032;4.314;2022-09-03T12:03:36;101035.03;;;29.02
18161;BMP280;9205;52.032;4.314;2022-09-03T12:06:28;101036.38;;;29.06
18161;BMP280;9205;52.032;4.314;2022-09-03T12:09:31;101039.28;;;29.03
18161;BMP280;9205;52.032;4.314;2022-09-03T12:12:15;101035.31;;;28.99
18161;BMP280;9205;52.032;4.314;2022-09-03T12:14:57;101031.25;;;28.78
18161;BMP280;9205;52.032;4.314;2022-09-03T12:17:32;101029.47;;;28.69
18161;BMP280;9205;52.032;4.314;2022-09-03T12:20:11;101027.19;;;28.56
18161;BMP280;9205;52.032;4.314;2022-09-03T12:22:40;101028.34;;;28.35
18161;BMP280;9205;52.032;4.314;2022-09-03T12:25:09;101030.44;;;28.32
18161;BMP280;9205;52.032;4.314;2022-09-03T12:27:39;101027.81;;;28.32
18161;BMP280;9205;52.032;4.314;2022-09-03T12:30:16;101028.34;;;28.26
18161;BMP280;9205;52.032;4.314;2022-09-03T12:32:43;101023.59;;;28.21
18161;BMP280;9205;52.032;4.314;2022-09-03T12:35:16;101026.59;;;28.26
18161;BMP280;9205;52.032;4.314;2022-09-03T12:37:46;101019.56;;;28.36
18161;BMP280;9205;52.032;4.314;2022-09-03T12:40:21;101016.06;;;28.45
18161;BMP280;9205;52.032;4.314;2022-09-03T12:42:49;101014.69;;;28.51
18161;BMP280;9205;52.032;4.314;2022-09-03T12:45:19;101022.94;;;28.46
18161;BMP280;9205;52.032;4.314;2022-09-03T12:47:47;101015.38;;;28.53
18161;BMP280;9205;52.032;4.314;2022-09-03T12:50:19;101016.50;;;28.50
18161;BMP280;9205;52.032;4.314;2022-09-03T12:52:49;101015.53;;;28.51
18161;BMP280;9205;52.032;4.314;2022-09-03T12:55:28;101012.59;;;28.63
18161;BMP280;9205;52.032;4.314;2022-09-03T12:58:07;101021.00;;;28.57
18161;BMP280;9205;52.032;4.314;2022-09-03T13:00:42;101011.66;;;28.55
18161;BMP280;9205;52.032;4.314;2022-09-03T13:03:16;101012.50;;;28.56
18161;BMP280;9205;52.032;4.314;2022-09-03T13:05:49;101017.31;;;28.51
18161;BMP280;9205;52.032;4.314;2022-09-03T13:08:22;101011.84;;;28.44
18161;BMP280;9205;52.032;4.314;2022-09-03T13:10:53;101020.53;;;28.35
18161;BMP280;9205;52.032;4.314;2022-09-03T13:13:24;101008.28;;;28.36
18161;BMP280;9205;52.032;4.314;2022-09-03T13:19:08;101015.22;;;28.54
18161;BMP280;9205;52.032;4.314;2022-09-03T13:21:53;101013.25;;;28.65
18161;BMP280;9205;52.032;4.314;2022-09-03T13:24:42;101012.16;;;28.68
18161;BMP280;9205;52.032;4.314;2022-09-03T13:27:22;101014.97;;;28.57
18161;BMP280;9205;52.032;4.314;2022-09-03T13:30:07;101017.19;;;28.52
18161;BMP280;9205;52.032;4.314;2022-09-03T13:32:50;101014.69;;;28.51
18161;BMP280;9205;52.032;4.314;2022-09-03T13:35:28;101011.38;;;28.58
18161;BMP280;9205;52.032;4.314;2022-09-03T13:38:13;101004.50;;;28.57
18161;BMP280;9205;52.032;4.314;2022-09-03T13:40:50;101008.47;;;28.61
18161;BMP280;9205;52.032;4.314;2022-09-03T13:43:30;101011.59;;;28.74
18161;BMP280;9205;52.032;4.314;2022-09-03T13:46:06;101008.38;;;28.89
18161;BMP280;9205;52.032;4.314;2022-09-03T13:48:38;101005.59;;;29.00
18161;BMP280;9205;52.032;4.314;2022-09-03T13:51:27;101006.94;;;29.04
18161;BMP280;9205;52.032;4.314;2022-09-03T13:54:08;100997.69;;;29.10
18161;BMP280;9205;52.032;4.314;2022-09-03T13:56:54;100994.47;;;29.16
18161;BMP280;9205;52.032;4.314;2022-09-03T13:59:35;101007.94;;;29.21
18161;BMP280;9205;52.032;4.314;2022-09-03T14:02:19;100997.06;;;29.25
18161;BMP280;9205;52.032;4.314;2022-09-03T14:05:03;100996.22;;;29.25
18161;BMP280;9205;52.032;4.314;2022-09-03T14:07:47;101000.31;;;29.37
18161;BMP280;9205;52.032;4.314;2022-09-03T14:10:30;101004.25;;;29.40
18161;BMP280;9205;52.032;4.314;2022-09-03T14:13:12;101005.72;;;29.52
18161;BMP280;9205;52.032;4.314;2022-09-03T14:15:46;100998.81;;;29.51
18161;BMP280;9205;52.032;4.314;2022-09-03T14:18:34;101000.84;;;29.40
18161;BMP280;9205;52.032;4.314;2022-09-03T14:21:10;101009.84;;;29.45
18161;BMP280;9205;52.032;4.314;2022-09-03T14:23:46;101004.56;;;29.55
18161;BMP280;9205;52.032;4.314;2022-09-03T14:26:22;101005.72;;;29.52
18161;BMP280;9205;52.032;4.314;2022-09-03T14:28:58;100994.75;;;29.57
18161;BMP280;9205;52.032;4.314;2022-09-03T14:35:04;100998.88;;;29.42
18161;BMP280;9205;52.032;4.314;2022-09-03T14:37:56;101001.69;;;29.31
18161;BMP280;9205;52.032;4.314;2022-09-03T14:40:30;100994.88;;;29.21
18161;BMP280;9205;52.032;4.314;2022-09-03T14:43:24;101000.66;;;29.15
18161;BMP280;9205;52.032;4.314;2022-09-03T14:46:27;100998.38;;;29.12
18161;BMP280;9205;52.032;4.314;2022-09-03T14:49:37;101004.56;;;29.11
18161;BMP280;9205;52.032;4.314;2022-09-03T14:55:22;101013.72;;;28.97
18161;BMP280;9205;52.032;4.314;2022-09-03T14:58:23;100998.34;;;28.94
18161;BMP280;9205;52.032;4.314;2022-09-03T15:01:01;101005.38;;;28.84
18161;BMP280;9205;52.032;4.314;2022-09-03T15:04:07;101002.63;;;28.76